createdAt,value
2019-06-07T00:00:36.654Z,20.28
2019-06-07T00:01:13.838Z,20.24
2019-06-07T00:02:13.287Z,20.21
2019-06-07T00:03:23.986Z,20.20
2019-06-07T00:04:14.157Z,20.14
2019-06-07T00:05:14.996Z,20.14
2019-06-07T00:06:19.604Z,20.13
2019-06-07T00:07:14.976Z,20.13
2019-06-07T00:08:21.319Z,20.11
2019-06-07T00:09:15.340Z,20.11
2019-06-07T00:10:36.050Z,20.10
2019-06-07T00:11:15.670Z,20.11
2019-06-07T00:12:14.917Z,20.11
2019-06-07T00:13:15.205Z,20.13
2019-06-07T00:14:15.820Z,20.14
2019-06-07T00:15:20.011Z,20.14
2019-06-07T00:16:14.957Z,20.16
2019-06-07T00:17:15.364Z,20.17
2019-06-07T00:18:15.085Z,20.18
2019-06-07T00:19:15.931Z,20.17
2019-06-07T00:20:15.597Z,20.21
2019-06-07T00:21:14.439Z,20.20
2019-06-07T00:22:18.343Z,20.18
2019-06-07T00:23:15.878Z,20.18
2019-06-07T00:24:15.900Z,20.17
2019-06-07T00:25:15.127Z,20.17
2019-06-07T00:26:14.005Z,20.16
2019-06-07T00:27:12.895Z,20.14
2019-06-07T00:28:13.269Z,20.13
2019-06-07T00:29:15.369Z,20.16
2019-06-07T00:30:35.927Z,20.16
2019-06-07T00:31:14.914Z,20.16
2019-06-07T00:32:14.403Z,20.13
2019-06-07T00:33:16.624Z,20.14
2019-06-07T00:34:13.950Z,20.14
2019-06-07T00:35:14.749Z,20.14
2019-06-07T00:36:14.685Z,20.16
2019-06-07T00:37:12.740Z,20.14
2019-06-07T00:38:12.052Z,20.14
2019-06-07T00:39:14.460Z,20.13
2019-06-07T00:40:17.966Z,20.10
2019-06-07T00:41:22.681Z,20.10
2019-06-07T00:42:16.646Z,20.10
2019-06-07T00:43:16.357Z,20.05
2019-06-07T00:44:12.506Z,20.02
2019-06-07T00:45:14.037Z,20.02
2019-06-07T00:46:15.730Z,19.99
2019-06-07T00:47:13.060Z,20.01
2019-06-07T00:48:21.283Z,19.99
2019-06-07T00:49:29.013Z,19.98
2019-06-07T00:50:13.759Z,19.99
2019-06-07T00:51:13.984Z,19.99
2019-06-07T00:53:07.040Z,19.98
2019-06-07T00:53:18.244Z,19.99
2019-06-07T00:54:15.013Z,19.96
2019-06-07T00:55:15.212Z,19.92
2019-06-07T00:56:11.867Z,19.92
2019-06-07T00:57:12.401Z,19.94
2019-06-07T00:58:13.577Z,19.94
2019-06-07T00:59:14.701Z,19.99
2019-06-07T01:00:14.760Z,19.99
2019-06-07T01:01:13.116Z,19.98
2019-06-07T01:02:14.645Z,19.96
2019-06-07T01:03:12.686Z,19.96
2019-06-07T01:04:13.131Z,19.95
2019-06-07T01:05:15.411Z,19.94
2019-06-07T01:06:12.799Z,19.92
2019-06-07T01:07:13.223Z,19.92
2019-06-07T01:08:14.379Z,19.92
2019-06-07T01:09:12.817Z,19.91
2019-06-07T01:10:13.663Z,19.92
2019-06-07T01:11:11.708Z,19.91
2019-06-07T01:12:24.594Z,19.87
2019-06-07T01:13:11.675Z,19.87
2019-06-07T01:14:11.643Z,19.87
2019-06-07T01:15:11.667Z,19.87
2019-06-07T01:16:11.645Z,19.86
2019-06-07T01:17:23.390Z,19.84
2019-06-07T01:18:36.143Z,19.84
2019-06-07T01:19:13.800Z,19.86
2019-06-07T01:20:11.604Z,19.83
2019-06-07T01:21:11.644Z,19.83
2019-06-07T01:22:11.571Z,19.84
2019-06-07T01:23:51.641Z,19.84
2019-06-07T01:24:12.786Z,19.83
2019-06-07T01:25:11.541Z,19.84
2019-06-07T01:26:11.579Z,19.81
2019-06-07T01:27:11.539Z,19.80
2019-06-07T01:28:11.502Z,19.81
2019-06-07T01:29:11.518Z,19.81
2019-06-07T01:30:11.481Z,19.81
2019-06-07T01:31:11.470Z,19.83
2019-06-07T01:32:11.472Z,19.83
2019-06-07T01:33:11.473Z,19.81
2019-06-07T01:34:11.457Z,19.81
2019-06-07T01:35:11.443Z,19.81
2019-06-07T01:36:11.646Z,19.84
2019-06-07T01:37:11.414Z,19.84
2019-06-07T01:38:11.400Z,19.83
2019-06-07T01:39:11.444Z,19.81
2019-06-07T01:40:11.397Z,19.80
2019-06-07T01:41:11.364Z,19.81
2019-06-07T01:42:11.353Z,19.77
2019-06-07T01:43:27.062Z,19.77
2019-06-07T01:44:12.390Z,19.76
2019-06-07T01:45:11.316Z,19.71
2019-06-07T01:46:11.308Z,19.68
2019-06-07T01:47:11.348Z,19.66
2019-06-07T01:48:11.289Z,19.69
2019-06-07T01:49:11.276Z,19.73
2019-06-07T01:50:11.300Z,19.73
2019-06-07T01:51:11.256Z,19.69
2019-06-07T01:52:11.257Z,19.68
2019-06-07T01:53:11.258Z,19.71
2019-06-07T01:54:49.380Z,19.73
2019-06-07T01:55:12.249Z,19.76
2019-06-07T01:56:11.209Z,19.74
2019-06-07T01:57:29.451Z,19.74
2019-06-07T01:58:12.200Z,19.77
2019-06-07T01:59:11.177Z,19.77
2019-06-07T02:00:11.168Z,19.77
2019-06-07T02:01:11.166Z,19.76
2019-06-07T02:02:11.161Z,19.76
2019-06-07T02:03:11.148Z,19.76
2019-06-07T02:04:11.106Z,19.77
2019-06-07T02:05:11.118Z,19.76
2019-06-07T02:06:11.138Z,19.76
2019-06-07T02:07:11.100Z,19.76
2019-06-07T02:08:11.088Z,19.80
2019-06-07T02:09:11.066Z,19.81
2019-06-07T02:10:11.059Z,19.78
2019-06-07T02:11:11.048Z,19.77
2019-06-07T02:12:25.718Z,19.78
2019-06-07T02:13:12.015Z,19.77
2019-06-07T02:14:25.313Z,19.76
2019-06-07T02:15:11.000Z,19.74
2019-06-07T02:16:11.006Z,19.73
2019-06-07T02:17:10.971Z,19.73
2019-06-07T02:18:10.983Z,19.73
2019-06-07T02:19:10.970Z,19.74
2019-06-07T02:20:10.957Z,19.74
2019-06-07T02:21:10.955Z,19.73
2019-06-07T02:22:10.935Z,19.73
2019-06-07T02:23:10.935Z,19.73
2019-06-07T02:24:10.921Z,19.73
2019-06-07T02:25:37.391Z,19.73
2019-06-07T02:26:11.880Z,19.71
2019-06-07T02:27:10.923Z,19.71
2019-06-07T02:28:27.218Z,19.73
2019-06-07T02:29:11.851Z,19.69
2019-06-07T02:30:36.899Z,19.73
2019-06-07T02:31:11.836Z,19.73
2019-06-07T02:32:10.813Z,19.73
2019-06-07T02:33:10.821Z,19.76
2019-06-07T02:34:10.852Z,19.76
2019-06-07T02:35:10.784Z,19.74
2019-06-07T02:36:10.794Z,19.73
2019-06-07T02:37:10.772Z,19.76
2019-06-07T02:38:10.784Z,19.74
2019-06-07T02:39:10.796Z,19.76
2019-06-07T02:40:10.743Z,19.77
2019-06-07T02:41:10.733Z,19.76
2019-06-07T02:42:10.701Z,19.74
2019-06-07T02:43:10.720Z,19.76
2019-06-07T02:44:10.704Z,19.76
2019-06-07T02:45:24.215Z,19.76
2019-06-07T02:46:25.419Z,19.78
2019-06-07T02:47:11.652Z,19.77
2019-06-07T02:48:10.655Z,19.80
2019-06-07T02:49:10.644Z,19.81
2019-06-07T02:50:10.660Z,19.84
2019-06-07T02:51:10.624Z,19.86
2019-06-07T02:52:10.624Z,19.87
2019-06-07T02:53:10.602Z,19.87
2019-06-07T02:54:10.604Z,19.87
2019-06-07T02:55:10.621Z,19.88
2019-06-07T02:57:11.576Z,19.92
2019-06-07T02:58:10.546Z,19.92
2019-06-07T02:59:10.540Z,19.96
2019-06-07T03:00:40.653Z,19.99
2019-06-07T03:01:11.520Z,19.98
2019-06-07T03:02:10.502Z,20.02
2019-06-07T03:03:10.497Z,20.02
2019-06-07T03:04:10.513Z,20.03
2019-06-07T03:05:10.477Z,20.05
2019-06-07T03:06:10.451Z,20.06
2019-06-07T03:07:10.493Z,20.08
2019-06-07T03:08:10.431Z,20.05
2019-06-07T03:09:10.410Z,20.05
2019-06-07T03:10:10.542Z,20.08
2019-06-07T03:11:10.400Z,20.10
2019-06-07T03:12:10.391Z,20.13
2019-06-07T03:13:10.400Z,20.13
2019-06-07T03:14:10.372Z,20.14
2019-06-07T03:15:10.361Z,20.17
2019-06-07T03:16:22.649Z,20.18
2019-06-07T03:17:10.328Z,20.18
2019-06-07T03:18:10.320Z,20.21
2019-06-07T03:19:10.317Z,20.23
2019-06-07T03:20:10.297Z,20.20
2019-06-07T03:21:10.289Z,20.21
2019-06-07T03:22:10.286Z,20.23
2019-06-07T03:23:10.288Z,20.21
2019-06-07T03:24:10.259Z,20.24
2019-06-07T03:25:10.250Z,20.26
2019-06-07T03:26:10.270Z,20.28
2019-06-07T03:27:34.071Z,20.29
2019-06-07T03:28:11.263Z,20.31
2019-06-07T03:29:10.204Z,20.33
2019-06-07T03:30:36.060Z,20.38
2019-06-07T03:31:11.206Z,20.38
2019-06-07T03:32:10.181Z,20.39
2019-06-07T03:33:10.216Z,20.41
2019-06-07T03:34:10.162Z,20.39
2019-06-07T03:35:10.138Z,20.43
2019-06-07T03:36:23.288Z,20.48
2019-06-07T03:37:11.139Z,20.47
2019-06-07T03:38:10.106Z,20.48
2019-06-07T03:39:10.140Z,20.51
2019-06-07T03:40:10.088Z,20.52
2019-06-07T03:41:10.089Z,20.54
2019-06-07T03:42:10.082Z,20.55
2019-06-07T03:43:10.055Z,20.58
2019-06-07T03:44:10.046Z,20.58
2019-06-07T03:45:10.043Z,20.61
2019-06-07T03:46:10.027Z,20.66
2019-06-07T03:47:19.893Z,20.62
2019-06-07T03:48:10.016Z,20.67
2019-06-07T03:49:10.025Z,20.70
2019-06-07T03:50:09.995Z,20.73
2019-06-07T03:51:24.055Z,20.73
2019-06-07T03:52:10.953Z,20.76
2019-06-07T03:53:09.943Z,20.77
2019-06-07T03:54:09.943Z,20.82
2019-06-07T03:55:09.966Z,20.84
2019-06-07T03:56:10.246Z,20.84
2019-06-07T03:57:09.911Z,20.87
2019-06-07T03:59:10.900Z,20.92
2019-06-07T04:00:09.884Z,20.95
2019-06-07T04:01:09.861Z,20.98
2019-06-07T04:02:09.893Z,21.01
2019-06-07T04:03:09.842Z,21.04
2019-06-07T04:04:09.827Z,21.04
2019-06-07T04:05:09.812Z,21.03
2019-06-07T04:06:09.818Z,21.06
2019-06-07T04:07:09.806Z,21.04
2019-06-07T04:08:09.822Z,21.10
2019-06-07T04:09:09.795Z,21.10
2019-06-07T04:10:09.779Z,21.10
2019-06-07T04:11:09.747Z,21.13
2019-06-07T04:12:09.748Z,21.14
2019-06-07T04:13:09.743Z,21.17
2019-06-07T04:14:09.723Z,21.17
2019-06-07T04:15:09.717Z,21.19
2019-06-07T04:16:09.724Z,21.21
2019-06-07T04:17:09.678Z,21.25
2019-06-07T04:18:21.539Z,21.27
2019-06-07T04:19:09.655Z,21.28
2019-06-07T04:20:09.675Z,21.32
2019-06-07T04:21:09.647Z,21.35
2019-06-07T04:22:09.682Z,21.38
2019-06-07T04:23:27.347Z,21.43
2019-06-07T04:24:10.615Z,21.46
2019-06-07T04:25:09.598Z,21.50
2019-06-07T04:26:09.590Z,21.53
2019-06-07T04:27:09.597Z,21.52
2019-06-07T04:28:09.589Z,21.53
2019-06-07T04:29:32.320Z,21.53
2019-06-07T04:30:10.536Z,21.53
2019-06-07T04:31:09.576Z,21.53
2019-06-07T04:32:09.518Z,21.61
2019-06-07T04:33:09.517Z,21.68
2019-06-07T04:34:09.507Z,21.71
2019-06-07T04:35:09.529Z,21.71
2019-06-07T04:36:09.497Z,21.75
2019-06-07T04:37:09.466Z,21.79
2019-06-07T04:38:09.446Z,21.82
2019-06-07T04:39:09.436Z,21.82
2019-06-07T04:40:09.441Z,21.83
2019-06-07T04:41:09.457Z,21.88
2019-06-07T04:42:09.426Z,21.90
2019-06-07T04:43:09.427Z,21.92
2019-06-07T04:44:09.386Z,21.99
2019-06-07T04:45:32.506Z,22.00
2019-06-07T04:46:10.378Z,22.03
2019-06-07T04:47:09.374Z,22.06
2019-06-07T04:48:09.364Z,22.09
2019-06-07T04:49:20.996Z,22.09
2019-06-07T04:50:09.348Z,22.15
2019-06-07T04:51:09.397Z,22.17
2019-06-07T04:52:09.305Z,22.17
2019-06-07T04:53:09.306Z,22.20
2019-06-07T04:54:09.295Z,22.21
2019-06-07T04:55:09.270Z,22.25
2019-06-07T04:56:09.267Z,22.28
2019-06-07T04:57:09.265Z,22.31
2019-06-07T04:58:09.276Z,22.33
2019-06-07T04:59:09.233Z,22.35
2019-06-07T05:00:46.197Z,22.39
2019-06-07T05:01:26.388Z,22.40
2019-06-07T05:02:10.247Z,22.47
2019-06-07T05:03:09.215Z,22.55
2019-06-07T05:04:09.194Z,22.58
2019-06-07T05:05:09.187Z,22.60
2019-06-07T05:06:09.179Z,22.60
2019-06-07T05:07:09.198Z,22.62
2019-06-07T05:08:26.974Z,22.64
2019-06-07T05:09:10.147Z,22.67
2019-06-07T05:10:09.136Z,22.70
2019-06-07T05:11:09.103Z,22.73
2019-06-07T05:12:09.093Z,22.77
2019-06-07T05:13:09.086Z,22.77
2019-06-07T05:14:09.084Z,22.79
2019-06-07T05:15:09.062Z,22.80
2019-06-07T05:16:09.066Z,22.85
2019-06-07T05:17:09.069Z,22.91
2019-06-07T05:18:09.060Z,22.92
2019-06-07T05:19:09.047Z,22.94
2019-06-07T05:20:19.344Z,22.97
2019-06-07T05:21:09.005Z,23.01
2019-06-07T05:22:08.987Z,23.04
2019-06-07T05:23:08.977Z,23.05
2019-06-07T05:24:10.523Z,23.07
2019-06-07T05:25:08.973Z,23.10
2019-06-07T05:26:08.974Z,23.12
2019-06-07T05:27:08.947Z,23.13
2019-06-07T05:28:08.914Z,23.15
2019-06-07T05:29:08.914Z,23.15
2019-06-07T05:30:36.112Z,23.15
2019-06-07T05:31:09.892Z,23.17
2019-06-07T05:32:08.883Z,23.20
2019-06-07T05:33:08.877Z,23.23
2019-06-07T05:34:08.862Z,23.27
2019-06-07T05:35:08.924Z,23.31
2019-06-07T05:36:08.836Z,23.33
2019-06-07T05:37:11.972Z,23.35
2019-06-07T05:38:08.826Z,23.38
2019-06-07T05:39:08.849Z,23.42
2019-06-07T05:40:08.809Z,23.46
2019-06-07T05:41:08.803Z,23.48
2019-06-07T05:42:08.778Z,23.51
2019-06-07T05:43:08.766Z,23.54
2019-06-07T05:44:12.716Z,23.57
2019-06-07T05:45:08.767Z,23.58
2019-06-07T05:46:08.731Z,23.60
2019-06-07T05:47:08.733Z,23.61
2019-06-07T05:48:08.768Z,23.63
2019-06-07T05:49:08.703Z,23.65
2019-06-07T05:50:38.022Z,23.68
2019-06-07T05:51:18.781Z,23.70
2019-06-07T05:52:08.704Z,23.73
2019-06-07T05:53:08.653Z,23.73
2019-06-07T05:54:08.642Z,23.73
2019-06-07T05:55:08.644Z,23.76
2019-06-07T05:56:08.888Z,23.79
2019-06-07T05:57:08.601Z,23.80
2019-06-07T05:58:08.601Z,23.87
2019-06-07T05:59:08.592Z,23.87
2019-06-07T06:00:08.584Z,23.91
2019-06-07T06:01:42.374Z,23.94
2019-06-07T06:02:22.309Z,23.95
2019-06-07T06:03:09.609Z,24.00
2019-06-07T06:04:08.559Z,24.03
2019-06-07T06:05:08.540Z,24.09
2019-06-07T06:06:08.525Z,24.13
2019-06-07T06:07:08.521Z,24.16
2019-06-07T06:08:08.535Z,24.24
2019-06-07T06:09:13.821Z,24.30
2019-06-07T06:10:09.469Z,24.34
2019-06-07T06:11:08.473Z,24.37
2019-06-07T06:12:08.456Z,24.40
2019-06-07T06:13:08.453Z,24.43
2019-06-07T06:14:08.651Z,24.49
2019-06-07T06:15:08.443Z,24.52
2019-06-07T06:16:08.403Z,24.57
2019-06-07T06:17:08.415Z,24.60
2019-06-07T06:18:08.393Z,24.61
2019-06-07T06:19:08.381Z,24.62
2019-06-07T06:21:18.071Z,24.69
2019-06-07T06:23:23.326Z,24.80
2019-06-07T06:24:23.343Z,24.83
2019-06-07T06:25:33.151Z,24.85
2019-06-07T06:26:24.335Z,24.85
2019-06-07T06:28:02.573Z,24.88
2019-06-07T06:28:24.277Z,24.91
2019-06-07T06:29:23.267Z,24.95
2019-06-07T06:30:23.274Z,24.99
2019-06-07T06:31:23.248Z,25.00
2019-06-07T06:32:41.955Z,25.06
2019-06-07T06:33:33.769Z,25.13
2019-06-07T06:34:24.217Z,25.15
2019-06-07T06:35:23.200Z,25.20
2019-06-07T06:36:23.313Z,25.24
2019-06-07T06:37:23.201Z,25.25
2019-06-07T06:38:23.171Z,25.28
2019-06-07T06:39:23.157Z,25.33
2019-06-07T06:40:23.169Z,25.35
2019-06-07T06:41:23.153Z,25.36
2019-06-07T06:42:23.137Z,25.36
2019-06-07T06:43:23.116Z,25.38
2019-06-07T06:44:23.130Z,25.40
2019-06-07T06:45:23.101Z,25.46
2019-06-07T06:46:38.310Z,25.47
2019-06-07T06:47:24.091Z,25.54
2019-06-07T06:48:23.105Z,25.57
2019-06-07T06:49:23.079Z,25.57
2019-06-07T06:50:23.083Z,25.60
2019-06-07T06:51:23.047Z,25.62
2019-06-07T06:52:23.093Z,25.69
2019-06-07T06:54:46.630Z,25.82
2019-06-07T06:55:43.968Z,25.88
2019-06-07T06:56:45.140Z,25.90
2019-06-07T06:57:43.411Z,25.90
2019-06-07T06:59:21.977Z,25.92
2019-06-07T06:59:45.088Z,25.97
2019-06-07T07:00:50.324Z,25.98
2019-06-07T07:01:44.900Z,25.99
2019-06-07T07:03:35.066Z,26.05
2019-06-07T07:04:03.577Z,26.07
2019-06-07T07:04:44.003Z,26.06
2019-06-07T07:05:43.433Z,26.07
2019-06-07T07:06:42.744Z,26.07
2019-06-07T07:07:42.685Z,26.10
2019-06-07T07:08:43.653Z,26.12
2019-06-07T07:09:45.573Z,26.10
2019-06-07T07:10:43.256Z,26.07
2019-06-07T07:11:59.282Z,26.09
2019-06-07T07:12:43.116Z,26.10
2019-06-07T07:13:44.479Z,26.10
2019-06-07T07:14:45.579Z,26.13
2019-06-07T07:15:43.308Z,26.20
2019-06-07T07:16:42.871Z,26.25
2019-06-07T07:17:53.837Z,26.28
2019-06-07T07:18:44.274Z,26.26
2019-06-07T07:19:42.585Z,26.23
2019-06-07T07:20:43.611Z,26.28
2019-06-07T07:21:42.082Z,26.26
2019-06-07T07:22:42.763Z,26.32
2019-06-07T07:24:08.246Z,26.32
2019-06-07T07:25:59.303Z,26.44
2019-06-07T07:26:58.311Z,26.47
2019-06-07T07:27:55.403Z,26.47
2019-06-07T07:28:57.629Z,26.50
2019-06-07T07:30:34.383Z,26.51
2019-06-07T07:30:57.164Z,26.55
2019-06-07T07:31:56.479Z,26.60
2019-06-07T07:32:59.330Z,26.69
2019-06-07T07:35:00.241Z,26.73
2019-06-07T07:37:59.652Z,26.80
2019-06-07T07:40:01.716Z,26.87
2019-06-07T07:42:18.097Z,26.92
2019-06-07T07:44:05.269Z,27.03
2019-06-07T07:45:59.161Z,27.02
2019-06-07T07:48:08.266Z,27.00
2019-06-07T07:49:58.108Z,27.14
2019-06-07T07:51:00.073Z,27.17
2019-06-07T07:53:00.007Z,27.22
2019-06-07T07:54:57.793Z,27.27
2019-06-07T07:56:01.491Z,27.27
2019-06-07T07:56:56.150Z,27.28
2019-06-07T07:58:00.994Z,27.29
2019-06-07T08:00:13.237Z,27.32
2019-06-07T08:01:56.005Z,27.39
2019-06-07T08:02:58.638Z,27.43
2019-06-07T08:03:56.552Z,27.41
2019-06-07T08:05:20.202Z,27.44
2019-06-07T08:06:55.987Z,27.47
2019-06-07T08:07:59.795Z,27.47
2019-06-07T08:09:59.502Z,27.51
2019-06-07T08:11:59.950Z,27.62
2019-06-07T08:13:57.235Z,27.57
2019-06-07T08:14:58.619Z,27.50
2019-06-07T08:16:56.446Z,27.50
2019-06-07T08:17:58.105Z,27.55
2019-06-07T08:19:55.052Z,27.51
2019-06-07T08:21:17.218Z,27.59
2019-06-07T08:22:57.793Z,27.67
2019-06-07T08:24:55.997Z,27.75
2019-06-07T08:27:24.614Z,27.75
2019-06-07T08:27:56.869Z,27.78
2019-06-07T08:28:58.436Z,27.77
2019-06-07T08:30:15.647Z,27.85
2019-06-07T08:31:02.310Z,27.93
2019-06-07T08:31:57.608Z,28.00
2019-06-07T08:32:58.783Z,28.04
2019-06-07T08:33:58.062Z,28.06
2019-06-07T08:34:59.819Z,28.11
2019-06-07T08:36:10.382Z,28.09
2019-06-07T08:36:58.397Z,28.14
2019-06-07T08:38:21.514Z,28.19
2019-06-07T08:39:00.528Z,28.25
2019-06-07T08:39:57.557Z,28.27
2019-06-07T08:41:00.783Z,28.29
2019-06-07T08:42:14.359Z,28.29
2019-06-07T08:43:15.240Z,28.27
2019-06-07T08:44:57.113Z,28.29
2019-06-07T08:47:10.252Z,28.33
2019-06-07T08:48:55.975Z,28.37
2019-06-07T08:50:55.338Z,28.46
2019-06-07T08:51:57.736Z,28.49
2019-06-07T08:54:15.967Z,28.51
2019-06-07T08:54:57.020Z,28.52
2019-06-07T08:55:58.757Z,28.49
2019-06-07T08:57:06.648Z,28.49
2019-06-07T08:58:08.409Z,28.44
2019-06-07T08:58:56.917Z,28.44
2019-06-07T08:59:56.548Z,28.48
2019-06-07T09:00:58.079Z,28.55
2019-06-07T09:01:57.815Z,28.61
2019-06-07T09:02:55.652Z,28.64
2019-06-07T09:03:59.831Z,28.62
2019-06-07T09:04:57.022Z,28.62
2019-06-07T09:05:57.190Z,28.61
2019-06-07T09:07:07.280Z,28.59
2019-06-07T09:08:22.265Z,28.62
2019-06-07T09:08:56.111Z,28.61
2019-06-07T09:09:58.519Z,28.66
2019-06-07T09:10:56.487Z,28.76
2019-06-07T09:11:54.704Z,28.80
2019-06-07T09:12:59.185Z,28.80
2019-06-07T09:13:57.225Z,28.86
2019-06-07T09:15:09.356Z,28.88
2019-06-07T09:15:56.045Z,28.89
2019-06-07T09:16:55.366Z,28.89
2019-06-07T09:18:35.030Z,28.85
2019-06-07T09:18:56.073Z,28.81
2019-06-07T09:19:54.148Z,28.85
2019-06-07T09:20:53.698Z,28.81
2019-06-07T09:21:54.595Z,28.83
2019-06-07T09:22:59.023Z,28.86
2019-06-07T09:23:54.693Z,28.89
2019-06-07T09:24:59.172Z,28.92
2019-06-07T09:26:02.072Z,28.92
2019-06-07T09:26:55.847Z,28.93
2019-06-07T09:27:53.393Z,28.93
2019-06-07T09:29:53.369Z,29.04
2019-06-07T09:30:53.359Z,29.08
2019-06-07T09:31:53.958Z,29.14
2019-06-07T09:32:53.342Z,29.21
2019-06-07T09:33:53.342Z,29.23
2019-06-07T09:34:53.323Z,29.26
2019-06-07T09:35:53.301Z,29.30
2019-06-07T09:36:53.299Z,29.34
2019-06-07T09:38:07.699Z,29.37
2019-06-07T09:38:54.279Z,29.45
2019-06-07T09:39:53.270Z,29.43
2019-06-07T09:40:53.262Z,29.51
2019-06-07T09:41:53.253Z,29.57
2019-06-07T09:43:38.201Z,29.60
2019-06-07T09:44:05.483Z,29.58
2019-06-07T09:44:54.241Z,29.55
2019-06-07T09:45:53.216Z,29.53
2019-06-07T09:47:14.108Z,29.53
2019-06-07T09:47:54.221Z,29.55
2019-06-07T09:49:54.164Z,29.48
2019-06-07T09:50:53.183Z,29.49
2019-06-07T09:51:53.162Z,29.51
2019-06-07T09:52:58.518Z,29.53
2019-06-07T09:53:54.143Z,29.60
2019-06-07T09:55:54.115Z,29.61
2019-06-07T09:56:53.099Z,29.61
2019-06-07T09:57:53.102Z,29.65
2019-06-07T09:58:54.229Z,29.67
2019-06-07T10:00:33.576Z,29.68
2019-06-07T10:00:54.054Z,29.67
2019-06-07T10:01:53.045Z,29.70
2019-06-07T10:02:53.042Z,29.73
2019-06-07T10:03:53.041Z,29.80
2019-06-07T10:04:53.011Z,29.85
2019-06-07T10:05:53.771Z,29.92
2019-06-07T10:06:53.006Z,29.97
2019-06-07T10:08:09.734Z,29.90
2019-06-07T10:10:04.702Z,29.87
2019-06-07T10:10:17.371Z,29.90
2019-06-07T10:10:53.976Z,29.89
2019-06-07T10:11:52.956Z,29.95
2019-06-07T10:12:52.937Z,29.95
2019-06-07T10:13:52.963Z,29.92
2019-06-07T10:14:52.915Z,29.89
2019-06-07T10:15:53.717Z,29.85
2019-06-07T10:16:52.895Z,29.83
2019-06-07T10:17:52.885Z,29.82
2019-06-07T10:18:52.874Z,29.79
2019-06-07T10:19:52.885Z,29.76
2019-06-07T10:20:52.853Z,29.78
2019-06-07T10:21:52.856Z,29.78
2019-06-07T10:22:52.833Z,29.83
2019-06-07T10:23:52.816Z,29.83
2019-06-07T10:24:52.860Z,29.83
2019-06-07T10:25:52.800Z,29.82
2019-06-07T10:26:52.797Z,29.83
2019-06-07T10:27:52.785Z,29.79
2019-06-07T10:28:53.662Z,29.79
2019-06-07T10:29:52.766Z,29.85
2019-06-07T10:31:04.488Z,29.85
2019-06-07T10:31:52.763Z,29.90
2019-06-07T10:32:52.736Z,30.00
2019-06-07T10:33:52.713Z,30.08
2019-06-07T10:34:52.716Z,30.10
2019-06-07T10:35:52.694Z,30.11
2019-06-07T10:36:52.717Z,30.08
2019-06-07T10:37:52.705Z,30.10
2019-06-07T10:38:52.653Z,30.10
2019-06-07T10:39:52.653Z,30.15
2019-06-07T10:40:52.653Z,30.23
2019-06-07T10:41:54.138Z,30.26
2019-06-07T10:42:52.626Z,30.26
2019-06-07T10:43:52.604Z,30.26
2019-06-07T10:44:52.617Z,30.29
2019-06-07T10:45:52.594Z,30.34
2019-06-07T10:46:52.600Z,30.37
2019-06-07T10:47:52.587Z,30.39
2019-06-07T10:48:52.621Z,30.31
2019-06-07T10:49:52.557Z,30.35
2019-06-07T10:50:52.683Z,30.35
2019-06-07T10:51:52.548Z,30.38
2019-06-07T10:52:52.526Z,30.45
2019-06-07T10:53:52.519Z,30.49
2019-06-07T10:54:52.506Z,30.49
2019-06-07T10:55:52.498Z,30.57
2019-06-07T10:56:52.507Z,30.61
2019-06-07T10:57:52.470Z,30.51
2019-06-07T10:58:52.466Z,30.45
2019-06-07T10:59:52.445Z,30.43
2019-06-07T11:00:52.446Z,30.46
2019-06-07T11:02:03.498Z,30.53
2019-06-07T11:02:55.071Z,30.62
2019-06-07T11:03:52.416Z,30.65
2019-06-07T11:04:52.397Z,30.62
2019-06-07T11:05:52.441Z,30.64
2019-06-07T11:06:52.385Z,30.65
2019-06-07T11:07:52.386Z,30.76
2019-06-07T11:08:52.359Z,30.82
2019-06-07T11:10:06.123Z,30.80
2019-06-07T11:10:53.348Z,30.82
2019-06-07T11:11:52.398Z,30.72
2019-06-07T11:12:52.317Z,30.62
2019-06-07T11:13:52.628Z,30.60
2019-06-07T11:14:52.297Z,30.65
2019-06-07T11:15:52.289Z,30.62
2019-06-07T11:16:52.289Z,30.62
2019-06-07T11:17:52.289Z,30.69
2019-06-07T11:18:52.288Z,30.67
2019-06-07T11:19:52.260Z,30.76
2019-06-07T11:20:52.236Z,30.83
2019-06-07T11:21:52.219Z,30.82
2019-06-07T11:22:52.230Z,30.79
2019-06-07T11:23:52.222Z,30.79
2019-06-07T11:24:52.210Z,30.82
2019-06-07T11:25:52.190Z,30.80
2019-06-07T11:26:52.179Z,30.79
2019-06-07T11:27:52.172Z,30.83
2019-06-07T11:28:52.174Z,30.91
2019-06-07T11:29:52.147Z,30.94
2019-06-07T11:30:52.271Z,30.99
2019-06-07T11:31:52.201Z,30.99
2019-06-07T11:33:02.795Z,31.02
2019-06-07T11:33:52.218Z,31.01
2019-06-07T11:34:52.111Z,31.02
2019-06-07T11:35:52.093Z,31.06
2019-06-07T11:36:52.071Z,31.02
2019-06-07T11:37:52.071Z,30.95
2019-06-07T11:38:52.052Z,30.89
2019-06-07T11:39:52.092Z,30.88
2019-06-07T11:40:52.042Z,30.83
2019-06-07T11:41:52.024Z,30.84
2019-06-07T11:42:52.859Z,30.79
2019-06-07T11:43:52.004Z,30.77
2019-06-07T11:44:56.678Z,30.79
2019-06-07T11:45:53.022Z,30.84
2019-06-07T11:46:51.984Z,30.97
2019-06-07T11:47:52.001Z,31.04
2019-06-07T11:48:51.942Z,31.06
2019-06-07T11:49:51.950Z,31.10
2019-06-07T11:50:51.935Z,31.13
2019-06-07T11:51:51.932Z,31.16
2019-06-07T11:52:51.914Z,31.20
2019-06-07T11:53:51.893Z,31.31
2019-06-07T11:54:51.929Z,31.32
2019-06-07T11:55:51.925Z,31.31
2019-06-07T11:56:51.892Z,31.31
2019-06-07T11:57:51.866Z,31.17
2019-06-07T11:58:51.855Z,31.10
2019-06-07T11:59:51.833Z,31.14
2019-06-07T12:00:51.846Z,31.13
2019-06-07T12:01:51.824Z,31.14
2019-06-07T12:02:51.813Z,31.14
2019-06-07T12:04:03.182Z,31.14
2019-06-07T12:04:51.799Z,31.12
2019-06-07T12:05:51.775Z,31.09
2019-06-07T12:06:51.788Z,31.06
2019-06-07T12:07:51.760Z,31.02
2019-06-07T12:08:51.761Z,31.01
2019-06-07T12:09:56.284Z,30.92
2019-06-07T12:10:52.741Z,31.02
2019-06-07T12:11:51.729Z,31.09
2019-06-07T12:12:51.711Z,31.02
2019-06-07T12:13:51.699Z,30.92
2019-06-07T12:14:51.708Z,30.94
2019-06-07T12:15:51.691Z,30.91
2019-06-07T12:16:51.672Z,30.95
2019-06-07T12:17:51.709Z,31.06
2019-06-07T12:18:51.651Z,31.04
2019-06-07T12:19:51.650Z,31.02
2019-06-07T12:20:51.629Z,31.09
2019-06-07T12:21:51.619Z,30.99
2019-06-07T12:22:51.640Z,31.06
2019-06-07T12:23:51.611Z,31.07
2019-06-07T12:24:51.635Z,31.12
2019-06-07T12:25:51.598Z,31.16
2019-06-07T12:26:51.613Z,31.16
2019-06-07T12:27:51.638Z,31.09
2019-06-07T12:28:51.559Z,31.09
2019-06-07T12:29:51.545Z,31.12
2019-06-07T12:30:54.507Z,31.06
2019-06-07T12:31:51.534Z,31.01
2019-06-07T12:32:51.516Z,31.01
2019-06-07T12:33:51.678Z,31.02
2019-06-07T12:35:01.367Z,30.97
2019-06-07T12:35:51.495Z,30.97
2019-06-07T12:36:51.469Z,31.02
2019-06-07T12:37:51.452Z,31.07
2019-06-07T12:38:51.454Z,31.01
2019-06-07T12:39:51.448Z,30.95
2019-06-07T12:40:57.444Z,30.92
2019-06-07T12:41:52.434Z,30.89
2019-06-07T12:42:51.431Z,30.89
2019-06-07T12:43:51.396Z,30.86
2019-06-07T12:44:51.389Z,30.91
2019-06-07T12:45:51.438Z,30.91
2019-06-07T12:46:51.368Z,30.86
2019-06-07T12:47:51.359Z,30.80
2019-06-07T12:48:51.366Z,30.77
2019-06-07T12:49:51.357Z,30.77
2019-06-07T12:50:51.326Z,30.77
2019-06-07T12:51:51.317Z,30.80
2019-06-07T12:52:51.652Z,30.76
2019-06-07T12:53:51.310Z,30.79
2019-06-07T12:54:51.288Z,30.75
2019-06-07T12:55:51.280Z,30.73
2019-06-07T12:56:52.424Z,30.65
2019-06-07T12:57:51.286Z,30.61
2019-06-07T12:58:51.251Z,30.61
2019-06-07T12:59:51.241Z,30.55
2019-06-07T13:00:51.246Z,30.57
2019-06-07T13:01:51.222Z,30.57
2019-06-07T13:02:51.229Z,30.54
2019-06-07T13:03:51.204Z,30.49
2019-06-07T13:04:51.233Z,30.46
2019-06-07T13:06:01.074Z,30.51
2019-06-07T13:06:51.163Z,30.53
2019-06-07T13:07:51.158Z,30.55
2019-06-07T13:08:51.158Z,30.57
2019-06-07T13:09:51.134Z,30.58
2019-06-07T13:10:51.157Z,30.57
2019-06-07T13:11:51.119Z,30.54
2019-06-07T13:12:51.096Z,30.49
2019-06-07T13:13:51.104Z,30.47
2019-06-07T13:14:51.097Z,30.45
2019-06-07T13:15:51.077Z,30.38
2019-06-07T13:16:51.083Z,30.39
2019-06-07T13:17:51.071Z,30.37
2019-06-07T13:18:51.036Z,30.39
2019-06-07T13:19:51.052Z,30.39
2019-06-07T13:20:55.209Z,30.37
2019-06-07T13:21:51.027Z,30.39
2019-06-07T13:22:51.007Z,30.45
2019-06-07T13:23:51.528Z,30.43
2019-06-07T13:24:50.997Z,30.39
2019-06-07T13:25:50.987Z,30.37
2019-06-07T13:26:50.987Z,30.32
2019-06-07T13:27:50.974Z,30.34
2019-06-07T13:28:51.004Z,30.34